Time;durP1;ratioP1;P1;durP2;ratioP2;P2;SDS_P1;SDS_P2;PMS_P1;PMS_P2;Temp;Humidity;BMP_temperature;BMP_pressure;BME280_temperature;BME280_humidity;BME280_pressure;Samples;Min_cycle;Max_cycle;Signal;HPM_P1;HPM_P2
2023/08/27 00:00:14;;;;;;;6.38;3.17;;;;;;;15.27;100.00;100937.81;5065163;28;20024;-75
2023/08/27 00:02:40;;;;;;;3.33;2.40;;;;;;;15.27;100.00;100936.00;5064749;28;20038;-75
2023/08/27 00:05:07;;;;;;;4.43;2.67;;;;;;;15.27;100.00;100929.88;5063737;28;20450;-75
2023/08/27 00:07:34;;;;;;;6.43;2.55;;;;;;;15.28;100.00;100937.72;5064765;28;20275;-75
2023/08/27 00:10:00;;;;;;;3.47;2.72;;;;;;;15.28;100.00;100934.22;5065012;28;20055;-75
2023/08/27 00:12:30;;;;;;;3.67;2.67;;;;;;;15.28;100.00;100936.84;5081178;27;1318316;-75
2023/08/27 00:14:56;;;;;;;4.88;2.90;;;;;;;15.29;100.00;100931.47;5101831;28;20023;-75
2023/08/27 00:17:21;;;;;;;5.57;3.33;;;;;;;15.29;100.00;100930.66;5099961;28;20350;-75
2023/08/27 00:19:47;;;;;;;4.05;3.15;;;;;;;15.29;100.00;100925.38;5092016;28;20031;-75
2023/08/27 00:22:12;;;;;;;6.18;2.88;;;;;;;15.29;100.00;100928.84;5092063;28;20060;-75
2023/08/27 00:24:38;;;;;;;6.57;3.38;;;;;;;15.30;100.00;100925.28;5091827;28;20263;-75
2023/08/27 00:27:05;;;;;;;4.28;3.88;;;;;;;15.29;100.00;100920.94;5091909;28;20028;-75
2023/08/27 00:29:31;;;;;;;5.20;3.67;;;;;;;15.30;100.00;100916.53;5091804;28;20308;-75
2023/08/27 00:31:56;;;;;;;5.28;4.30;;;;;;;15.31;100.00;100910.28;5091867;28;20036;-75
2023/08/27 00:34:32;;;;;;;4.45;3.92;;;;;;;15.29;100.00;100907.75;5084846;28;20358;-75
2023/08/27 00:36:57;;;;;;;5.93;3.80;;;;;;;15.29;100.00;100910.38;5112046;28;20027;-74
2023/08/27 00:39:22;;;;;;;4.32;3.47;;;;;;;15.29;100.00;100909.53;5111912;28;20034;-75
2023/08/27 00:41:48;;;;;;;4.28;3.30;;;;;;;15.29;100.00;100906.91;5093376;28;20334;-75
2023/08/27 00:44:14;;;;;;;5.50;3.10;;;;;;;15.29;100.00;100902.47;5112082;28;20036;-75
2023/08/27 00:46:39;;;;;;;5.82;3.38;;;;;;;15.29;100.00;100901.63;5111964;28;20024;-75
2023/08/27 00:49:04;;;;;;;2.97;2.53;;;;;;;15.29;100.00;100901.63;5112291;28;20031;-75
2023/08/27 00:51:32;;;;;;;3.50;2.80;;;;;;;15.29;100.00;100906.91;5112071;28;20031;-74
2023/08/27 00:53:58;;;;;;;2.83;2.63;;;;;;;15.28;100.00;100892.00;5111971;28;20038;-74
2023/08/27 00:56:24;;;;;;;2.40;2.30;;;;;;;15.29;100.00;100883.16;5112014;28;20383;-75
2023/08/27 00:58:50;;;;;;;2.80;2.60;;;;;;;15.28;100.00;100884.06;5111490;28;20036;-75
2023/08/27 01:04:37;;;;;;;4.13;2.95;;;;;;;15.28;100.00;100879.66;4957214;28;20055;-75
2023/08/27 01:07:26;;;;;;;3.15;2.30;;;;;;;15.27;100.00;100875.31;5100238;28;20035;-75
2023/08/27 01:10:04;;;;;;;3.90;2.80;;;;;;;15.27;100.00;100877.13;5111030;28;20042;-75
2023/08/27 01:12:48;;;;;;;4.07;2.72;;;;;;;15.26;100.00;100878.03;5110885;28;20050;-75
2023/08/27 01:15:16;;;;;;;3.33;2.70;;;;;;;15.26;100.00;100873.66;5111545;28;20033;-75
2023/08/27 01:17:42;;;;;;;;;;;;;;;15.27;100.00;100874.47;5093574;28;20024;-75
2023/08/27 01:20:09;;;;;;;3.10;2.80;;;;;;;15.25;100.00;100866.66;5111711;28;19912;-75
2023/08/27 01:22:35;;;;;;;2.70;2.50;;;;;;;15.25;100.00;100871.94;5104404;28;20043;-74
2023/08/27 01:25:00;;;;;;;3.65;2.65;;;;;;;15.25;100.00;100857.91;5097820;28;20039;-74
2023/08/27 01:27:39;;;;;;;4.38;2.78;;;;;;;15.25;100.00;100861.38;5097353;28;20324;-74
2023/08/27 01:30:29;;;;;;;3.15;2.47;;;;;;;15.26;100.00;100859.59;5097621;28;20036;-75
2023/08/27 01:33:03;;;;;;;3.05;2.80;;;;;;;15.25;100.00;100852.63;5097614;28;20055;-74
2023/08/27 01:35:30;;;;;;;2.88;2.67;;;;;;;15.26;100.00;100854.31;5096974;28;20059;-74
2023/08/27 01:37:56;;;;;;;3.25;3.05;;;;;;;15.26;100.00;100851.66;5097395;28;20247;-74
2023/08/27 01:40:21;;;;;;;3.78;3.30;;;;;;;15.26;100.00;100856.94;5046030;28;20297;-74
2023/08/27 01:42:47;;;;;;;4.05;3.70;;;;;;;15.26;100.00;100856.94;5079135;28;20470;-74
2023/08/27 01:45:13;;;;;;;4.05;2.67;;;;;;;15.26;100.00;100864.84;5097401;28;20047;-75
2023/08/27 01:47:38;;;;;;;5.35;3.38;;;;;;;15.25;100.00;100861.38;5096882;28;20043;-75
2023/08/27 01:50:05;;;;;;;3.72;2.95;;;;;;;15.25;100.00;100858.75;5097524;28;20081;-75
2023/08/27 01:52:31;;;;;;;3.40;2.78;;;;;;;15.25;100.00;100853.47;5096517;28;20031;-74
2023/08/27 01:54:57;;;;;;;3.13;2.83;;;;;;;15.26;100.00;100863.09;5097362;28;20046;-74
2023/08/27 01:57:22;;;;;;;5.22;3.22;;;;;;;15.26;100.00;100865.72;5096778;28;20067;-75
2023/08/27 01:59:47;;;;;;;3.80;3.38;;;;;;;15.27;100.00;100861.28;5096910;28;20036;-74
2023/08/27 02:02:13;;;;;;;2.95;2.75;;;;;;;15.26;100.00;100868.38;5078843;28;20028;-75
2023/08/27 02:04:38;;;;;;;3.90;2.85;;;;;;;15.26;100.00;100865.72;5096735;28;20028;-75
2023/08/27 02:07:04;;;;;;;3.33;3.13;;;;;;;15.26;100.00;100868.38;5096623;28;20040;-75
2023/08/27 02:09:29;;;;;;;4.03;3.17;;;;;;;15.26;100.00;100870.13;5096251;28;20077;-75
2023/08/27 02:11:54;;;;;;;4.70;3.35;;;;;;;15.26;100.00;100867.50;5096665;28;20043;-75
2023/08/27 02:14:20;;;;;;;3.80;3.40;;;;;;;15.27;100.00;100862.13;5096290;28;20154;-75
2023/08/27 02:16:45;;;;;;;3.33;2.92;;;;;;;15.27;100.00;100856.84;5096551;28;20036;-75
2023/08/27 02:19:10;;;;;;;4.03;3.67;;;;;;;15.27;100.00;100848.09;5096759;28;20082;-75
2023/08/27 02:21:36;;;;;;;4.10;3.00;;;;;;;15.27;100.00;100851.56;5095832;28;20024;-75
2023/08/27 02:24:01;;;;;;;4.78;3.28;;;;;;;15.27;100.00;100846.31;5096885;28;20036;-75
2023/08/27 02:26:27;;;;;;;4.30;2.78;;;;;;;15.27;100.00;100846.31;5096293;28;20031;-75
2023/08/27 02:28:53;;;;;;;3.20;3.00;;;;;;;15.26;100.00;100842.00;5096399;28;20040;-75
2023/08/27 02:31:18;;;;;;;4.00;3.60;;;;;;;15.28;100.00;100849.78;5096174;28;20035;-75
2023/08/27 02:33:44;;;;;;;3.05;2.85;;;;;;;15.26;100.00;100847.25;5077765;28;20314;-74
2023/08/27 02:36:10;;;;;;;4.03;3.30;;;;;;;15.28;100.00;100855.06;5088529;28;20040;-74
2023/08/27 02:38:35;;;;;;;6.07;3.17;;;;;;;15.28;100.00;100848.00;5095657;28;20063;-75
2023/08/27 02:41:01;;;;;;;5.68;3.05;;;;;;;15.29;100.00;100859.41;5096374;28;20036;-75
2023/08/27 02:43:26;;;;;;;3.80;3.40;;;;;;;15.29;100.00;100852.34;5095982;28;20292;-75
2023/08/27 02:45:52;;;;;;;7.25;3.38;;;;;;;15.27;100.00;100851.56;5096136;28;20468;-75
2023/08/27 02:48:17;;;;;;;3.55;3.25;;;;;;;15.29;100.00;100856.78;5095820;28;20121;-75
2023/08/27 02:50:42;;;;;;;4.35;3.22;;;;;;;15.28;100.00;100853.28;5095784;28;20036;-74
2023/08/27 02:53:08;;;;;;;3.65;3.17;;;;;;;15.28;100.00;100858.56;5096257;28;20032;-74
2023/08/27 02:55:33;;;;;;;4.55;3.60;;;;;;;15.28;100.00;100853.28;5095779;28;20036;-74
2023/08/27 02:57:59;;;;;;;3.63;3.38;;;;;;;15.29;100.00;100856.78;5096217;28;20040;-75
2023/08/27 03:00:25;;;;;;;6.18;3.35;;;;;;;15.29;100.00;100846.22;5095525;28;20130;-75
2023/08/27 03:02:51;;;;;;;4.15;3.22;;;;;;;15.29;100.00;100846.22;5095607;28;20198;-74
2023/08/27 03:05:17;;;;;;;6.47;3.40;;;;;;;15.29;100.00;100849.69;5095474;28;20047;-75
2023/08/27 03:07:45;;;;;;;7.45;3.30;;;;;;;15.30;100.00;100855.84;5077025;28;20028;-75
2023/08/27 03:10:11;;;;;;;3.95;3.30;;;;;;;15.30;100.00;100861.97;5095647;28;20039;-75
2023/08/27 03:12:37;;;;;;;3.63;3.20;;;;;;;15.30;100.00;100880.44;5094997;28;20277;-75
2023/08/27 03:15:02;;;;;;;4.47;3.28;;;;;;;15.30;100.00;100885.69;5095616;28;20046;-75
2023/08/27 03:17:28;;;;;;;3.92;2.63;;;;;;;15.28;100.00;100882.31;5095320;28;20149;-75
2023/08/27 03:19:54;;;;;;;2.75;1.58;;;;;;;15.26;100.00;100892.13;5095342;28;20062;-75
2023/08/27 03:22:19;;;;;;;3.75;1.55;;;;;;;15.24;100.00;100887.84;5095228;28;20044;-75
2023/08/27 03:24:46;;;;;;;2.58;1.00;;;;;;;15.22;100.00;100892.38;5095537;28;20035;-74
2023/08/27 03:27:12;;;;;;;3.05;0.82;;;;;;;15.20;100.00;100884.53;5095465;28;20042;-74
2023/08/27 03:29:37;;;;;;;3.17;0.73;;;;;;;15.18;100.00;100872.41;5095080;28;20040;-74
2023/08/27 03:32:02;;;;;;;2.50;0.90;;;;;;;15.14;100.00;100883.13;5095395;28;20036;-75
2023/08/27 03:34:28;;;;;;;0.95;0.73;;;;;;;15.12;100.00;100877.09;5095146;28;20352;-75
2023/08/27 03:36:53;;;;;;;1.80;0.70;;;;;;;15.09;100.00;100874.63;5095150;28;20103;-74
2023/08/27 03:39:18;;;;;;;0.60;0.60;;;;;;;15.06;100.00;100872.19;5095243;28;20046;-75
2023/08/27 03:41:45;;;;;;;0.75;0.52;;;;;;;15.04;100.00;100868.75;5095211;28;20027;-74
2023/08/27 03:44:10;;;;;;;1.10;0.50;;;;;;;15.00;100.00;100851.44;5095090;28;20031;-75
2023/08/27 03:46:36;;;;;;;1.67;0.63;;;;;;;14.96;100.00;100848.13;5094706;28;20254;-75
2023/08/27 03:49:02;;;;;;;4.82;0.80;;;;;;;14.94;100.00;100854.44;5095240;28;20103;-75
2023/08/27 03:51:28;;;;;;;0.65;0.50;;;;;;;14.91;100.00;100850.19;5094929;28;20319;-74
2023/08/27 03:53:58;;;;;;;2.17;0.75;;;;;;;14.89;100.00;100841.50;5076690;28;20103;-74
2023/08/27 03:56:24;;;;;;;1.98;0.50;;;;;;;14.89;100.00;100844.16;5076664;28;20434;-74
2023/08/27 03:58:49;;;;;;;0.98;0.40;;;;;;;14.86;100.00;100836.44;5094950;28;20067;-74
2023/08/27 04:01:15;;;;;;;0.70;0.70;;;;;;;14.85;100.00;100841.81;5095266;28;20392;-74
2023/08/27 04:03:40;;;;;;;1.52;0.70;;;;;;;14.83;100.00;100831.34;5095097;28;20059;-74
2023/08/27 04:06:07;;;;;;;0.88;0.63;;;;;;;14.81;100.00;100837.63;5089205;28;20355;-74
2023/08/27 04:08:32;;;;;;;1.90;0.60;;;;;;;14.80;100.00;100847.31;5074214;28;20036;-75
2023/08/27 04:10:58;;;;;;;1.17;0.73;;;;;;;14.78;100.00;100855.31;5074553;28;20299;-75
2023/08/27 04:13:23;;;;;;;1.20;0.80;;;;;;;14.78;100.00;100846.56;5074354;28;20347;-75
2023/08/27 04:16:03;;;;;;;0.75;0.60;;;;;;;14.75;100.00;100842.34;5074465;28;20086;-75
2023/08/27 04:18:29;;;;;;;1.77;0.60;;;;;;;14.73;100.00;100838.91;5074368;28;20115;-75
2023/08/27 04:20:55;;;;;;;1.05;0.57;;;;;;;14.72;100.00;100841.66;5074532;28;20036;-75
2023/08/27 04:23:21;;;;;;;5.32;0.85;;;;;;;14.71;100.00;100848.69;5074463;28;20069;-75
2023/08/27 04:25:47;;;;;;;1.13;0.60;;;;;;;14.69;100.00;100834.78;5074423;28;20063;-75
2023/08/27 04:28:13;;;;;;;1.20;0.70;;;;;;;14.67;100.00;100849.00;5074366;28;20339;-75
2023/08/27 04:30:38;;;;;;;2.10;0.73;;;;;;;14.65;100.00;100838.53;5073806;28;20036;-75
2023/08/27 04:33:07;;;;;;;3.78;0.63;;;;;;;14.64;100.00;100835.97;5074535;28;20099;-75
2023/08/27 04:35:33;;;;;;;2.03;0.70;;;;;;;14.63;100.00;100839.56;5073811;28;20043;-75
2023/08/27 04:37:58;;;;;;;1.38;0.68;;;;;;;14.62;100.00;100833.41;5074312;28;20024;-75
2023/08/27 04:40:24;;;;;;;4.63;0.85;;;;;;;14.62;100.00;100837.84;5074035;28;20067;-75
2023/08/27 04:42:49;;;;;;;1.55;0.60;;;;;;;14.60;100.00;100837.94;5074100;28;20111;-75
2023/08/27 04:45:15;;;;;;;1.95;0.93;;;;;;;14.61;100.00;100830.88;5074304;28;20134;-75
2023/08/27 04:47:41;;;;;;;4.22;0.80;;;;;;;14.60;100.00;100837.94;5073717;28;20036;-75
2023/08/27 04:50:07;;;;;;;0.60;0.57;;;;;;;14.59;100.00;100839.72;5074143;28;20047;-75
2023/08/27 04:52:36;;;;;;;2.17;0.70;;;;;;;14.58;100.00;100838.03;5073586;28;20308;-75
2023/08/27 04:55:06;;;;;;;0.65;0.65;;;;;;;14.58;100.00;100835.38;5074292;28;20039;-75
2023/08/27 04:57:35;;;;;;;1.67;0.60;;;;;;;14.58;100.00;100839.81;5074797;28;20426;-75
2023/08/27 05:00:08;;;;;;;1.10;0.77;;;;;;;14.56;100.00;100837.22;5078229;28;20062;-75
2023/08/27 05:02:35;;;;;;;1.08;0.60;;;;;;;14.56;100.00;100850.41;5077257;28;20308;-75
2023/08/27 05:05:01;;;;;;;0.73;0.70;;;;;;;14.55;100.00;100856.63;5077880;28;20033;-75
2023/08/27 05:07:26;;;;;;;1.63;1.00;;;;;;;14.55;100.00;100853.13;5077301;28;20475;-75
2023/08/27 05:09:51;;;;;;;0.82;0.60;;;;;;;14.54;100.00;100860.19;5077823;28;20103;-74
2023/08/27 05:12:17;;;;;;;1.73;0.70;;;;;;;14.54;100.00;100854.09;5077178;28;20044;-74
2023/08/27 05:14:42;;;;;;;1.50;0.60;;;;;;;14.52;100.00;100856.78;5077477;28;20047;-74
2023/08/27 05:17:07;;;;;;;1.15;0.68;;;;;;;14.52;100.00;100856.78;5077783;28;20103;-74
2023/08/27 05:19:33;;;;;;;2.60;0.60;;;;;;;14.50;100.00;100856.03;5059041;28;20327;-74
2023/08/27 05:22:01;;;;;;;1.67;0.70;;;;;;;14.51;100.00;100864.78;5077390;28;20085;-74
2023/08/27 05:24:26;;;;;;;1.48;0.45;;;;;;;14.49;100.00;100864.88;5077314;28;20047;-75
2023/08/27 05:26:51;;;;;;;1.88;0.75;;;;;;;14.50;100.00;100857.84;5077477;28;20032;-75
2023/08/27 05:29:17;;;;;;;0.90;0.60;;;;;;;14.48;100.00;100850.00;5077644;28;20036;-75
2023/08/27 05:31:43;;;;;;;2.45;0.80;;;;;;;14.49;100.00;100850.84;5077283;28;20109;-74
2023/08/27 05:34:08;;;;;;;1.42;0.80;;;;;;;14.48;100.00;100841.25;5077444;28;20044;-74
2023/08/27 05:36:33;;;;;;;1.08;0.68;;;;;;;14.48;100.00;100836.84;5076847;28;20032;-75
2023/08/27 05:38:59;;;;;;;2.63;0.50;;;;;;;14.49;100.00;100840.31;5077807;28;20032;-75
2023/08/27 05:41:24;;;;;;;1.25;0.70;;;;;;;14.47;100.00;100840.41;5076990;28;20127;-75
2023/08/27 05:43:49;;;;;;;0.60;0.60;;;;;;;14.47;100.00;100827.22;5077005;28;20032;-75
2023/08/27 05:46:15;;;;;;;0.63;0.63;;;;;;;14.47;100.00;100818.47;5058992;28;20043;-75
2023/08/27 05:48:40;;;;;;;1.73;0.70;;;;;;;14.47;100.00;100813.22;5076808;28;20042;-75
2023/08/27 05:51:05;;;;;;;0.70;0.70;;;;;;;14.47;100.00;100814.03;5077148;28;20104;-75
2023/08/27 05:53:31;;;;;;;1.75;0.70;;;;;;;14.46;100.00;100812.38;5076699;28;20036;-75
2023/08/27 05:55:56;;;;;;;3.50;1.25;;;;;;;14.47;100.00;100800.03;5077594;28;20046;-75
2023/08/27 05:58:22;;;;;;;1.25;1.13;;;;;;;14.47;100.00;100802.66;5077189;28;20028;-75
2023/08/27 06:00:51;;;;;;;1.00;1.00;;;;;;;14.47;100.00;100803.50;5076849;28;20037;-75
2023/08/27 06:03:17;;;;;;;1.52;1.42;;;;;;;14.49;100.00;100811.31;5076904;28;20032;-75
2023/08/27 06:05:42;;;;;;;4.32;2.90;;;;;;;14.49;100.00;100806.91;5076541;28;20044;-75
2023/08/27 06:08:07;;;;;;;3.17;2.78;;;;;;;14.51;100.00;100807.66;5076601;28;20105;-75
2023/08/27 06:10:34;;;;;;;3.97;3.60;;;;;;;14.52;100.00;100806.72;5076434;28;20102;-75
2023/08/27 06:13:00;;;;;;;4.15;3.47;;;;;;;14.55;100.00;100810.97;5076611;28;20048;-75
2023/08/27 06:15:28;;;;;;;4.45;4.05;;;;;;;14.56;100.00;100818.78;5057895;28;20035;-75
2023/08/27 06:17:54;;;;;;;4.70;4.07;;;;;;;14.58;100.00;100821.38;5079995;28;20036;-75
2023/08/27 06:20:20;;;;;;;5.50;5.00;;;;;;;14.61;100.00;100825.59;5096414;28;20074;-75
2023/08/27 06:22:45;;;;;;;5.35;4.85;;;;;;;14.63;100.00;100831.66;5096229;28;20039;-75
2023/08/27 06:25:11;;;;;;;6.00;5.05;;;;;;;14.64;100.00;100828.06;5096964;28;20039;-75
2023/08/27 06:27:37;;;;;;;5.28;4.88;;;;;;;14.67;100.00;100835.81;5096362;28;20057;-75
2023/08/27 06:30:03;;;;;;;6.28;5.47;;;;;;;14.68;100.00;100833.09;5096729;28;20389;-75
2023/08/27 06:32:28;;;;;;;5.68;5.28;;;;;;;14.71;100.00;100839.97;5088602;28;20034;-75
2023/08/27 06:34:54;;;;;;;8.13;6.80;;;;;;;14.73;100.00;100843.34;5096432;28;20067;-75
2023/08/27 06:37:20;;;;;;;6.88;6.28;;;;;;;14.75;100.00;100837.06;5095715;28;20339;-75
2023/08/27 06:39:45;;;;;;;8.98;7.00;;;;;;;14.78;100.00;100834.22;5093743;28;20097;-75
2023/08/27 06:42:12;;;;;;;10.15;6.80;;;;;;;14.80;100.00;100835.94;5096264;28;20309;-75
2023/08/27 06:44:38;;;;;;;6.68;5.97;;;;;;;14.82;100.00;100832.25;5095519;28;20027;-75
2023/08/27 06:47:03;;;;;;;8.55;6.80;;;;;;;14.84;100.00;100838.28;5078012;28;20499;-75
2023/08/27 06:49:29;;;;;;;6.45;5.95;;;;;;;14.86;100.00;100838.22;5089642;28;20047;-74
2023/08/27 06:51:54;;;;;;;6.75;5.72;;;;;;;14.88;100.00;100849.50;5064906;28;20291;-74
2023/08/27 06:54:19;;;;;;;6.78;6.13;;;;;;;14.90;100.00;100845.03;5074599;28;20210;-74
2023/08/27 06:56:45;;;;;;;7.57;6.95;;;;;;;14.92;100.00;100846.63;5084223;28;20033;-74
2023/08/27 06:59:10;;;;;;;7.30;6.60;;;;;;;14.95;100.00;100856.13;5091981;28;20039;-74
2023/08/27 07:01:36;;;;;;;7.53;6.47;;;;;;;14.96;100.00;100842.00;5064675;28;20318;-75
2023/08/27 07:04:02;;;;;;;11.35;6.70;;;;;;;14.99;100.00;100844.47;5076466;28;20036;-74
2023/08/27 07:06:27;;;;;;;7.05;6.30;;;;;;;15.00;100.00;100842.69;5084503;28;20035;-74
2023/08/27 07:08:53;;;;;;;6.15;5.20;;;;;;;15.00;100.00;100838.25;5079081;28;20338;-74
2023/08/27 07:11:18;;;;;;;4.60;4.20;;;;;;;15.01;100.00;100842.59;5075526;28;20055;-75
2023/08/27 07:13:43;;;;;;;4.13;3.63;;;;;;;15.03;100.00;100850.41;5075237;28;20032;-75
2023/08/27 07:16:09;;;;;;;3.13;2.63;;;;;;;15.05;100.00;100843.25;5084159;28;20051;-75
2023/08/27 07:18:34;;;;;;;2.90;2.15;;;;;;;15.07;100.00;100841.38;5081392;28;20040;-75
2023/08/27 07:21:00;;;;;;;2.10;1.95;;;;;;;15.08;100.00;100829.88;5093045;28;20035;-75
2023/08/27 07:23:26;;;;;;;2.40;1.90;;;;;;;15.09;100.00;100821.03;5073297;28;20040;-75
2023/08/27 07:25:51;;;;;;;2.15;1.73;;;;;;;15.10;100.00;100818.31;5092416;28;20070;-75
2023/08/27 07:28:17;;;;;;;2.53;1.77;;;;;;;15.13;100.00;100815.50;5099971;28;20219;-75
2023/08/27 07:30:42;;;;;;;4.10;1.40;;;;;;;15.14;100.00;100809.25;5091606;28;20037;-75
2023/08/27 07:33:08;;;;;;;1.77;1.45;;;;;;;15.16;100.00;100798.63;5094376;28;20338;-75
2023/08/27 07:35:34;;;;;;;3.20;1.70;;;;;;;15.19;100.00;100797.56;5094562;28;20028;-75
2023/08/27 07:37:59;;;;;;;1.33;1.13;;;;;;;15.21;100.00;100800.97;5089313;28;20027;-75
2023/08/27 07:40:25;;;;;;;1.30;1.20;;;;;;;15.22;100.00;100794.75;5088559;28;20252;-75
2023/08/27 07:42:50;;;;;;;1.08;0.98;;;;;;;15.22;100.00;100798.25;5090927;28;20300;-75
2023/08/27 07:45:15;;;;;;;1.30;1.17;;;;;;;15.24;100.00;100798.16;5093030;28;20032;-74
2023/08/27 07:47:41;;;;;;;1.52;1.00;;;;;;;15.25;100.00;100805.13;5092262;28;20062;-75
2023/08/27 07:50:07;;;;;;;0.70;0.70;;;;;;;15.26;100.00;100799.78;5081308;28;20377;-75
2023/08/27 07:52:32;;;;;;;1.17;0.98;;;;;;;15.27;100.00;100797.97;5070708;28;20047;-75
2023/08/27 07:54:58;;;;;;;0.90;0.90;;;;;;;15.27;100.00;100798.81;5072212;28;20062;-74
2023/08/27 07:57:23;;;;;;;0.90;0.90;;;;;;;15.27;100.00;100811.16;5071557;28;20283;-74
2023/08/27 07:59:51;;;;;;;1.67;0.90;;;;;;;15.28;100.00;100815.47;5070802;28;20036;-75
2023/08/27 08:02:16;;;;;;;1.10;1.00;;;;;;;15.27;100.00;100814.66;5053109;28;20028;-74
2023/08/27 08:04:42;;;;;;;2.78;1.20;;;;;;;15.27;100.00;100814.66;5072445;28;20043;-74
2023/08/27 08:07:09;;;;;;;1.05;0.95;;;;;;;15.28;100.00;100815.47;5086691;28;20331;-75
2023/08/27 08:09:35;;;;;;;1.02;1.00;;;;;;;15.26;100.00;100823.53;5092393;28;20036;-74
2023/08/27 08:12:00;;;;;;;1.60;1.15;;;;;;;15.25;100.00;100826.25;5093035;28;20051;-75
2023/08/27 08:14:26;;;;;;;0.88;0.60;;;;;;;15.23;100.00;100822.84;5092872;28;20277;-75
2023/08/27 08:16:53;;;;;;;0.70;0.70;;;;;;;15.21;100.00;100814.16;5092657;28;20095;-75
2023/08/27 08:19:19;;;;;;;1.95;0.68;;;;;;;15.20;100.00;100823.03;5092379;28;20353;-74
2023/08/27 08:21:45;;;;;;;0.60;0.60;;;;;;;15.18;100.00;100817.00;5092178;28;20027;-75
2023/08/27 08:24:10;;;;;;;0.90;0.60;;;;;;;15.16;100.00;100819.72;5092711;28;20220;-75
2023/08/27 08:26:35;;;;;;;0.73;0.52;;;;;;;15.15;100.00;100821.53;5073504;28;20028;-74
2023/08/27 08:29:01;;;;;;;0.60;0.60;;;;;;;15.14;100.00;100822.44;5092727;28;20099;-74
2023/08/27 08:31:26;;;;;;;0.60;0.57;;;;;;;15.10;100.00;100820.94;5092426;28;20040;-75
2023/08/27 08:33:51;;;;;;;0.57;0.57;;;;;;;15.12;100.00;100828.78;5095663;28;20488;-74
2023/08/27 08:36:17;;;;;;;0.73;0.50;;;;;;;15.09;100.00;100832.41;5096287;28;20215;-75
2023/08/27 08:38:43;;;;;;;0.80;0.60;;;;;;;15.08;100.00;100833.38;5096489;28;20103;-75
2023/08/27 08:41:10;;;;;;;0.47;0.47;;;;;;;15.08;100.00;100820.19;5096324;28;20035;-75
2023/08/27 08:43:47;;;;;;;0.93;0.60;;;;;;;15.07;100.00;100834.31;5096283;28;20699;-74
2023/08/27 08:46:13;;;;;;;0.88;0.70;;;;;;;15.08;100.00;100836.03;5096646;28;20465;-75
2023/08/27 08:48:42;;;;;;;1.92;0.57;;;;;;;15.08;100.00;100836.03;5096052;28;20074;-74
2023/08/27 08:51:08;;;;;;;0.43;0.43;;;;;;;15.09;100.00;100835.06;5096432;28;20289;-74
2023/08/27 08:53:46;;;;;;;2.28;0.60;;;;;;;15.10;100.00;100828.03;5077318;28;20057;-74
2023/08/27 08:56:23;;;;;;;1.10;0.37;;;;;;;15.10;100.00;100838.56;5096372;28;20034;-74
2023/08/27 08:58:54;;;;;;;1.23;0.60;;;;;;;15.12;100.00;100844.59;5095910;28;20266;-74
2023/08/27 09:01:21;;;;;;;0.60;0.60;;;;;;;15.11;100.00;100835.81;5095622;28;20081;-74
2023/08/27 09:03:48;;;;;;;0.50;0.50;;;;;;;15.12;100.00;100836.69;5095891;28;20403;-74
2023/08/27 09:06:17;;;;;;;0.30;0.30;;;;;;;15.12;100.00;100839.31;5096119;28;20044;-74
2023/08/27 09:08:43;;;;;;;0.98;0.55;;;;;;;15.10;100.00;100839.41;5077946;28;20043;-75
2023/08/27 09:11:09;;;;;;;0.70;0.50;;;;;;;15.11;100.00;100838.44;5077471;28;20036;-74
2023/08/27 09:13:35;;;;;;;1.30;0.68;;;;;;;15.08;100.00;100833.38;5094463;28;20058;-74
2023/08/27 09:16:00;;;;;;;0.40;0.40;;;;;;;15.08;100.00;100835.16;5095855;28;20039;-74
2023/08/27 09:18:26;;;;;;;1.55;0.65;;;;;;;15.07;100.00;100821.13;5095750;28;20044;-74
2023/08/27 09:20:51;;;;;;;0.55;0.55;;;;;;;15.06;100.00;100827.34;5095568;28;20024;-74
2023/08/27 09:23:17;;;;;;;1.95;0.57;;;;;;;15.06;100.00;100831.75;5095405;28;20042;-74
2023/08/27 09:25:42;;;;;;;0.77;0.55;;;;;;;15.04;100.00;100823.94;5094936;28;20032;-74
2023/08/27 09:28:08;;;;;;;0.60;0.57;;;;;;;15.02;100.00;100810.00;5094902;28;20035;-74
2023/08/27 09:30:33;;;;;;;0.85;0.60;;;;;;;15.02;100.00;100823.19;5094882;28;20031;-74
2023/08/27 09:32:59;;;;;;;1.23;0.40;;;;;;;15.01;100.00;100831.19;5095587;28;20371;-74
2023/08/27 09:35:38;;;;;;;0.85;0.60;;;;;;;15.00;100.00;100832.13;5091962;28;20224;-74
2023/08/27 09:38:04;;;;;;;2.83;0.70;;;;;;;14.95;99.49;100813.94;5077070;28;20032;-74
2023/08/27 09:40:30;;;;;;;0.68;0.43;;;;;;;14.94;99.66;100815.72;5090805;28;20247;-74
2023/08/27 09:43:06;;;;;;;0.60;0.60;;;;;;;14.91;99.62;100813.25;5072512;28;20154;-74
2023/08/27 09:45:33;;;;;;;0.50;0.50;;;;;;;14.89;99.34;100816.94;5084738;28;20028;-74
2023/08/27 09:47:58;;;;;;;0.52;0.40;;;;;;;14.85;99.45;100816.28;5084764;28;20046;-74
2023/08/27 09:50:24;;;;;;;0.55;0.50;;;;;;;14.84;99.86;100826.91;5079309;28;20060;-74
2023/08/27 09:52:49;;;;;;;1.15;0.68;;;;;;;14.83;100.00;100830.50;5073776;28;20060;-74
2023/08/27 09:55:16;;;;;;;0.52;0.52;;;;;;;14.81;100.00;100840.25;5074135;28;20032;-74
2023/08/27 09:57:53;;;;;;;0.80;0.60;;;;;;;14.78;100.00;100836.03;5073656;28;20370;-75
2023/08/27 10:00:19;;;;;;;0.70;0.50;;;;;;;14.76;100.00;100830.84;5074533;28;20036;-75
2023/08/27 10:02:48;;;;;;;0.70;0.60;;;;;;;14.76;100.00;100833.47;5074852;28;20096;-75
2023/08/27 10:05:14;;;;;;;0.88;0.88;;;;;;;14.72;100.00;100813.50;5092864;28;20035;-75
2023/08/27 10:07:39;;;;;;;2.35;0.70;;;;;;;14.72;100.00;100815.31;5080550;28;20247;-75
2023/08/27 10:10:05;;;;;;;0.65;0.60;;;;;;;14.71;100.00;100806.53;5086583;28;20059;-75
2023/08/27 10:12:31;;;;;;;0.60;0.60;;;;;;;14.69;100.00;100803.13;5087572;28;20048;-75
2023/08/27 10:14:59;;;;;;;0.80;0.80;;;;;;;14.69;100.00;100810.22;5077040;28;20038;-75
2023/08/27 10:17:24;;;;;;;1.30;0.93;;;;;;;14.68;100.00;100814.63;5074073;28;20519;-74
2023/08/27 10:19:51;;;;;;;1.70;1.00;;;;;;;14.68;100.00;100817.28;5085625;28;20042;-74
2023/08/27 10:22:18;;;;;;;1.98;1.00;;;;;;;14.67;100.00;100820.00;5084501;28;20031;-74
2023/08/27 10:24:46;;;;;;;5.40;1.13;;;;;;;14.67;100.00;100815.56;5085693;28;20449;-74
2023/08/27 10:27:11;;;;;;;2.40;1.00;;;;;;;14.67;100.00;100826.09;5084481;28;20032;-74
2023/08/27 10:29:37;;;;;;;2.25;0.65;;;;;;;14.67;100.00;100820.00;5077819;28;20415;-75
2023/08/27 10:32:03;;;;;;;2.30;0.88;;;;;;;14.69;100.00;100833.94;5085511;28;20031;-75
2023/08/27 10:34:29;;;;;;;2.65;0.73;;;;;;;14.70;100.00;100835.63;5083886;28;20271;-75
2023/08/27 10:37:07;;;;;;;2.05;0.70;;;;;;;14.71;100.00;100837.31;5081843;28;20028;-75
2023/08/27 10:39:36;;;;;;;1.80;0.60;;;;;;;14.72;100.00;100831.13;5078308;28;20040;-75
2023/08/27 10:42:02;;;;;;;2.45;0.70;;;;;;;14.73;100.00;100840.72;5073648;28;20024;-75
2023/08/27 10:44:28;;;;;;;0.75;0.40;;;;;;;14.75;100.00;100842.34;5082680;28;20063;-76
2023/08/27 10:47:09;;;;;;;1.55;0.80;;;;;;;14.78;100.00;100852.69;5072917;28;20212;-74
2023/08/27 10:49:37;;;;;;;3.10;0.80;;;;;;;14.80;100.00;100860.50;5079202;28;20046;-74
2023/08/27 10:52:22;;;;;;;1.50;0.85;;;;;;;14.82;100.00;100865.69;5080524;28;20042;-74
2023/08/27 10:54:57;;;;;;;1.52;1.00;;;;;;;14.83;100.00;100868.25;5071865;28;20120;-74
2023/08/27 10:57:23;;;;;;;1.85;0.70;;;;;;;14.85;100.00;100865.53;5076757;28;20595;-74
2023/08/27 10:59:49;;;;;;;2.50;1.00;;;;;;;14.86;100.00;100877.75;5082909;28;20036;-74
2023/08/27 11:02:16;;;;;;;1.27;0.55;;;;;;;14.88;100.00;100881.16;5076004;28;20024;-74
2023/08/27 11:04:43;;;;;;;2.85;0.90;;;;;;;14.90;100.00;100889.84;5081017;28;20223;-74
2023/08/27 11:07:17;;;;;;;2.25;0.80;;;;;;;14.92;100.00;100882.69;5085202;28;20020;-74
2023/08/27 11:09:52;;;;;;;1.40;0.68;;;;;;;14.92;100.00;100874.78;5081976;28;20411;-74
2023/08/27 11:12:24;;;;;;;4.00;1.00;;;;;;;14.94;100.00;100878.19;5082960;28;20066;-74
2023/08/27 11:14:51;;;;;;;2.63;0.93;;;;;;;14.96;100.00;100884.19;5072178;28;20282;-74
2023/08/27 11:17:25;;;;;;;2.22;0.68;;;;;;;14.96;100.00;100879.78;5079023;28;20032;-74